createdAt,value
2018-03-11T00:03:52.571Z,7.49
2018-03-11T00:08:55.085Z,7.56
2018-03-11T00:13:57.559Z,7.55
2018-03-11T00:19:00.068Z,7.66
2018-03-11T00:24:02.536Z,7.52
2018-03-11T00:29:05.012Z,7.44
2018-03-11T00:34:07.510Z,7.49
2018-03-11T00:39:09.993Z,7.55
2018-03-11T00:44:12.467Z,7.28
2018-03-11T00:49:14.956Z,7.35
2018-03-11T00:54:17.444Z,7.39
2018-03-11T00:59:19.911Z,7.59
2018-03-11T01:04:22.396Z,7.63
2018-03-11T01:09:24.869Z,7.75
2018-03-11T01:14:27.333Z,7.73
2018-03-11T01:19:29.844Z,7.64
2018-03-11T01:24:32.320Z,7.68
2018-03-11T01:29:34.788Z,7.76
2018-03-11T01:34:37.283Z,7.73
2018-03-11T01:39:39.808Z,7.64
2018-03-11T01:44:42.280Z,7.72
2018-03-11T01:49:44.792Z,7.58
2018-03-11T01:54:47.260Z,7.44
2018-03-11T01:59:49.744Z,7.29
2018-03-11T02:04:52.299Z,7.23
2018-03-11T02:09:54.780Z,6.79
2018-03-11T02:14:57.240Z,6.79
2018-03-11T02:19:59.720Z,6.85
2018-03-11T02:25:02.178Z,6.66
2018-03-11T02:30:04.641Z,6.56
2018-03-11T02:35:07.104Z,6.37
2018-03-11T02:40:09.580Z,6.14
2018-03-11T02:45:12.057Z,5.98
2018-03-11T02:50:14.572Z,5.89
2018-03-11T02:55:17.046Z,5.92
2018-03-11T03:00:19.557Z,6.14
2018-03-11T03:05:22.032Z,6.00
2018-03-11T03:10:24.522Z,5.89
2018-03-11T03:15:27.127Z,5.73
2018-03-11T03:20:29.594Z,5.56
2018-03-11T03:25:32.075Z,5.55
2018-03-11T03:30:34.554Z,5.32
2018-03-11T03:35:37.053Z,5.15
2018-03-11T03:40:39.592Z,4.84
2018-03-11T03:45:42.091Z,4.62
2018-03-11T03:50:44.544Z,4.27
2018-03-11T03:55:47.028Z,4.19
2018-03-11T04:00:50.318Z,4.18
2018-03-11T04:05:52.788Z,4.44
2018-03-11T04:10:55.267Z,4.51
2018-03-11T04:15:57.734Z,4.59
2018-03-11T04:21:00.201Z,4.58
2018-03-11T04:26:02.710Z,4.65
2018-03-11T04:31:05.179Z,4.64
2018-03-11T04:36:07.676Z,4.45
2018-03-11T04:41:10.166Z,4.66
2018-03-11T04:46:13.614Z,5.15
2018-03-11T04:51:16.115Z,5.27
2018-03-11T04:56:18.588Z,5.25
2018-03-11T05:01:21.068Z,5.06
2018-03-11T05:06:23.575Z,4.80
2018-03-11T05:11:26.045Z,4.81
2018-03-11T05:16:28.525Z,4.80
2018-03-11T05:21:31.006Z,4.76
2018-03-11T05:26:33.494Z,4.44
2018-03-11T05:31:35.961Z,4.46
2018-03-11T05:36:38.446Z,4.12
2018-03-11T05:41:40.904Z,3.96
2018-03-11T05:46:43.397Z,3.72
2018-03-11T05:51:45.844Z,3.67
2018-03-11T05:56:48.343Z,3.55
2018-03-11T06:01:50.840Z,3.46
2018-03-11T06:06:53.312Z,3.45
2018-03-11T06:11:55.808Z,3.49
2018-03-11T06:16:59.636Z,3.59
2018-03-11T06:22:02.481Z,3.68
2018-03-11T06:27:04.968Z,3.90
2018-03-11T06:32:07.420Z,4.24
2018-03-11T06:37:09.881Z,4.69
2018-03-11T06:42:12.355Z,5.21
2018-03-11T06:47:14.851Z,5.43
2018-03-11T06:52:17.378Z,5.71
2018-03-11T06:57:19.812Z,5.98
2018-03-11T07:02:22.268Z,6.26
2018-03-11T07:07:24.725Z,6.60
2018-03-11T07:12:27.318Z,6.96
2018-03-11T07:17:29.810Z,7.12
2018-03-11T07:22:32.285Z,7.40
2018-03-11T07:27:34.756Z,7.64
2018-03-11T07:32:37.223Z,7.82
2018-03-11T07:37:39.673Z,8.24
2018-03-11T07:42:42.136Z,8.44
2018-03-11T07:47:44.605Z,8.62
2018-03-11T07:52:47.105Z,8.97
2018-03-11T07:57:49.584Z,9.18
2018-03-11T08:02:52.161Z,9.30
2018-03-11T08:07:54.637Z,9.67
2018-03-11T08:12:57.111Z,9.77
2018-03-11T08:17:59.572Z,10.03
2018-03-11T08:23:02.021Z,10.36
2018-03-11T08:28:04.503Z,10.65
2018-03-11T08:33:06.953Z,10.62
2018-03-11T08:38:09.442Z,10.68
2018-03-11T08:43:11.910Z,10.95
2018-03-11T08:48:14.392Z,11.23
2018-03-11T08:53:16.869Z,11.62
2018-03-11T08:58:19.353Z,12.16
2018-03-11T09:03:21.820Z,12.68
2018-03-11T09:08:25.075Z,13.13
2018-03-11T09:13:27.573Z,13.67
2018-03-11T09:18:30.062Z,14.08
2018-03-11T09:23:32.578Z,14.54
2018-03-11T09:28:35.074Z,14.48
2018-03-11T09:33:41.530Z,13.99
2018-03-11T09:38:44.003Z,14.36
2018-03-11T09:43:46.489Z,14.36
2018-03-11T09:48:48.966Z,14.46
2018-03-11T09:53:51.477Z,14.45
2018-03-11T09:58:53.960Z,15.39
2018-03-11T10:03:56.476Z,16.41
2018-03-11T10:08:58.932Z,17.42
2018-03-11T10:14:01.430Z,18.70
2018-03-11T10:19:03.919Z,19.69
2018-03-11T10:24:06.409Z,19.84
2018-03-11T10:29:08.919Z,19.08
2018-03-11T10:34:11.478Z,18.18
2018-03-11T10:39:13.966Z,19.23
2018-03-11T10:44:16.476Z,18.75
2018-03-11T10:49:18.975Z,18.47
2018-03-11T10:54:21.469Z,18.38
2018-03-11T10:59:23.952Z,17.24
2018-03-11T11:04:32.026Z,17.06
2018-03-11T11:09:34.612Z,17.27
2018-03-11T11:14:37.090Z,16.99
2018-03-11T11:20:11.170Z,16.72
2018-03-11T11:25:31.039Z,16.02
2018-03-11T11:30:33.679Z,16.83
2018-03-11T11:35:36.344Z,18.08
2018-03-11T11:40:38.848Z,17.67
2018-03-11T11:45:41.314Z,17.60
2018-03-11T11:50:43.769Z,17.38
2018-03-11T11:55:46.231Z,17.15
2018-03-11T12:00:48.986Z,17.25
2018-03-11T12:05:53.424Z,17.38
2018-03-11T12:10:56.012Z,17.51
2018-03-11T12:15:58.484Z,18.02
2018-03-11T12:21:00.946Z,17.51
2018-03-11T12:26:05.292Z,17.64
2018-03-11T12:31:07.786Z,17.54
2018-03-11T12:36:10.259Z,17.94
2018-03-11T12:41:12.773Z,17.89
2018-03-11T12:46:15.237Z,17.50
2018-03-11T12:51:17.703Z,17.57
2018-03-11T12:56:23.012Z,17.13
2018-03-11T13:01:25.558Z,17.64
2018-03-11T13:06:28.043Z,18.20
2018-03-11T13:11:30.555Z,18.22
2018-03-11T13:16:32.991Z,18.34
2018-03-11T13:21:35.505Z,18.40
2018-03-11T13:26:37.960Z,18.88
2018-03-11T13:31:40.416Z,19.21
2018-03-11T13:36:42.898Z,19.11
2018-03-11T13:41:45.362Z,18.76
2018-03-11T13:46:56.747Z,18.37
2018-03-11T13:52:10.989Z,18.83
2018-03-11T14:03:07.193Z,18.78
2018-03-11T14:08:09.679Z,18.55
2018-03-11T14:13:12.153Z,18.53
2018-03-11T14:18:14.656Z,18.63
2018-03-11T14:23:17.129Z,18.69
2018-03-11T14:28:19.617Z,18.51
2018-03-11T14:33:22.709Z,18.29
2018-03-11T14:38:25.171Z,18.55
2018-03-11T14:43:27.860Z,18.79
2018-03-11T14:48:30.332Z,18.39
2018-03-11T14:53:32.972Z,18.15
2018-03-11T14:58:35.446Z,18.03
2018-03-11T15:03:37.907Z,18.08
2018-03-11T15:08:40.378Z,18.20
2018-03-11T15:13:42.888Z,18.45
2018-03-11T15:18:45.332Z,18.37
2018-03-11T15:23:47.804Z,18.05
2018-03-11T15:28:50.264Z,17.73
2018-03-11T15:33:52.741Z,17.58
2018-03-11T15:38:55.214Z,17.26
2018-03-11T15:43:57.650Z,16.96
2018-03-11T15:49:00.119Z,16.92
2018-03-11T15:54:02.594Z,16.87
2018-03-11T15:59:05.053Z,16.69
2018-03-11T16:04:07.606Z,16.53
2018-03-11T16:09:10.073Z,16.41
2018-03-11T16:14:13.713Z,16.40
2018-03-11T16:19:17.544Z,16.18
2018-03-11T16:24:28.382Z,16.21
2018-03-11T16:29:22.568Z,16.06
2018-03-11T16:34:25.117Z,16.05
2018-03-11T16:39:28.053Z,15.83
2018-03-11T16:44:31.108Z,15.62
2018-03-11T16:49:34.000Z,15.33
2018-03-11T16:54:36.553Z,15.17
2018-03-11T16:59:39.007Z,14.91
2018-03-11T17:04:41.500Z,14.69
2018-03-11T17:09:44.066Z,14.43
2018-03-11T17:14:46.544Z,13.93
2018-03-11T17:19:49.045Z,13.45
2018-03-11T17:24:51.511Z,13.20
2018-03-11T17:29:54.136Z,13.17
2018-03-11T17:34:56.965Z,13.01
2018-03-11T17:39:59.701Z,12.87
2018-03-11T17:45:02.249Z,12.69
2018-03-11T17:50:04.748Z,12.33
2018-03-11T17:55:07.299Z,12.47
2018-03-11T18:00:09.744Z,12.23
2018-03-11T18:05:12.289Z,11.92
2018-03-11T18:10:14.767Z,11.72
2018-03-11T18:15:17.271Z,11.53
2018-03-11T18:20:19.747Z,11.42
2018-03-11T18:25:22.254Z,11.53
2018-03-11T18:30:24.721Z,11.53
2018-03-11T18:35:27.187Z,11.54
2018-03-11T18:40:29.704Z,11.43
2018-03-11T18:45:32.193Z,11.35
2018-03-11T18:50:34.682Z,11.15
2018-03-11T18:55:37.185Z,11.09
2018-03-11T19:00:39.640Z,10.91
2018-03-11T19:05:42.129Z,10.66
2018-03-11T19:10:44.599Z,10.60
2018-03-11T19:15:47.228Z,10.39
2018-03-11T19:20:49.709Z,10.27
2018-03-11T19:25:53.493Z,10.24
2018-03-11T19:30:56.230Z,10.19
2018-03-11T19:35:58.707Z,10.07
2018-03-11T19:41:01.286Z,10.09
2018-03-11T19:46:05.135Z,10.16
2018-03-11T19:51:07.636Z,10.33
2018-03-11T19:56:10.083Z,10.43
2018-03-11T20:01:12.546Z,10.58
2018-03-11T20:06:15.031Z,10.71
2018-03-11T20:11:17.492Z,10.64
2018-03-11T20:16:19.989Z,10.58
2018-03-11T20:21:22.465Z,10.50
2018-03-11T20:26:24.927Z,10.21
2018-03-11T20:31:27.442Z,10.05
2018-03-11T20:36:29.929Z,9.94
2018-03-11T20:41:32.395Z,9.80
2018-03-11T20:46:34.842Z,9.65
2018-03-11T20:51:37.300Z,9.49
2018-03-11T20:56:39.773Z,9.36
2018-03-11T21:01:42.286Z,9.43
2018-03-11T21:06:45.216Z,9.45
2018-03-11T21:11:47.679Z,9.50
2018-03-11T21:16:50.147Z,9.48
2018-03-11T21:21:52.616Z,9.29
2018-03-11T21:26:55.119Z,9.15
2018-03-11T21:31:57.584Z,9.05
2018-03-11T21:37:00.051Z,8.77
2018-03-11T21:42:02.560Z,8.56
2018-03-11T21:47:05.049Z,8.35
2018-03-11T21:52:07.527Z,8.26
2018-03-11T21:57:10.002Z,8.19
2018-03-11T22:02:12.522Z,8.00
2018-03-11T22:07:14.965Z,7.70
2018-03-11T22:12:17.420Z,7.53
2018-03-11T22:17:19.884Z,7.43
2018-03-11T22:22:22.385Z,7.33
2018-03-11T22:27:24.844Z,7.24
2018-03-11T22:32:27.304Z,7.12
2018-03-11T22:37:29.780Z,6.90
2018-03-11T22:42:32.266Z,6.96
2018-03-11T22:47:34.763Z,7.06
2018-03-11T22:52:37.233Z,7.17
2018-03-11T22:57:39.713Z,7.10
2018-03-11T23:02:42.182Z,7.02
2018-03-11T23:07:44.688Z,7.14
2018-03-11T23:12:47.190Z,6.94
2018-03-11T23:17:49.636Z,6.97
2018-03-11T23:22:52.096Z,6.73
2018-03-11T23:27:54.579Z,6.50
2018-03-11T23:32:57.025Z,6.44
2018-03-11T23:37:59.484Z,6.26
2018-03-11T23:43:01.950Z,6.19
2018-03-11T23:48:04.428Z,6.14
2018-03-11T23:53:06.889Z,6.31
2018-03-11T23:58:09.373Z,6.55
